Time;durP1;ratioP1;P1;durP2;ratioP2;P2;SDS_P1;SDS_P2;PMS_P1;PMS_P2;Temp;Humidity;BMP_temperature;BMP_pressure;BME280_temperature;BME280_humidity;BME280_pressure;Samples;Min_cycle;Max_cycle;Signal;HPM_P1;HPM_P2
2022/11/07 00:01:20;;;;;;;3.83;2.10;;;11.40;99.90;;;;;;5063245;28;20278;-55
2022/11/07 00:03:47;;;;;;;4.20;1.87;;;11.40;99.90;;;;;;5069057;28;20290;-55
2022/11/07 00:06:14;;;;;;;4.87;2.20;;;11.40;99.90;;;;;;5070022;28;20533;-55
2022/11/07 00:08:41;;;;;;;3.10;1.90;;;11.40;99.90;;;;;;5070064;28;20215;-55
2022/11/07 00:11:08;;;;;;;5.60;2.20;;;11.40;99.90;;;;;;5067019;28;20621;-55
2022/11/07 00:13:35;;;;;;;6.73;2.30;;;11.40;99.90;;;;;;5069197;28;20216;-55
2022/11/07 00:16:05;;;;;;;7.30;2.20;;;11.40;99.90;;;;;;5067805;28;20208;-55
2022/11/07 00:18:32;;;;;;;7.77;2.27;;;11.40;99.90;;;;;;5068454;28;20225;-55
2022/11/07 00:21:04;;;;;;;20.33;3.23;;;11.40;99.90;;;;;;5064530;28;20225;-55
2022/11/07 00:23:31;;;;;;;2.03;1.80;;;11.40;99.90;;;;;;5068912;28;20195;-55
2022/11/07 00:26:06;;;;;;;7.60;2.50;;;11.40;99.90;;;;;;5069474;28;20216;-55
2022/11/07 00:28:34;;;;;;;5.63;1.70;;;11.40;99.90;;;;;;5067655;28;20654;-54
2022/11/07 00:31:01;;;;;;;5.70;2.10;;;11.40;99.90;;;;;;5061578;28;20653;-55
2022/11/07 00:33:28;;;;;;;3.37;2.20;;;11.40;99.90;;;;;;5067777;28;20213;-55
2022/11/07 00:35:54;;;;;;;7.50;2.10;;;11.40;99.90;;;;;;5068859;28;20216;-54
2022/11/07 00:38:21;;;;;;;6.47;2.30;;;11.40;99.90;;;;;;5065865;28;20548;-55
2022/11/07 00:40:59;;;;;;;5.23;1.90;;;11.40;99.90;;;;;;5070167;28;20194;-55
2022/11/07 00:43:27;;;;;;;5.10;1.50;;;11.30;99.90;;;;;;5070413;28;20292;-55
2022/11/07 00:45:54;;;;;;;4.83;2.00;;;11.30;99.90;;;;;;5062863;28;20194;-55
2022/11/07 00:48:21;;;;;;;4.83;2.00;;;11.30;99.90;;;;;;5069493;28;20210;-55
2022/11/07 00:50:48;;;;;;;3.53;1.90;;;11.30;99.90;;;;;;5068199;28;20211;-56
2022/11/07 00:53:15;;;;;;;5.23;2.10;;;11.30;99.90;;;;;;5069520;28;20240;-53
2022/11/07 00:55:42;;;;;;;5.47;1.87;;;11.30;99.90;;;;;;5064667;28;20204;-54
2022/11/07 00:58:09;;;;;;;5.50;2.07;;;11.20;99.90;;;;;;5061990;28;20641;-53
2022/11/07 01:00:40;;;;;;;5.50;1.90;;;11.10;99.90;;;;;;5061346;28;20216;-53
2022/11/07 01:05:57;;;;;;;4.40;2.00;;;11.10;99.90;;;;;;5060712;28;20197;-54
2022/11/07 01:08:24;;;;;;;4.67;2.00;;;11.10;99.90;;;;;;5059655;28;20232;-54
2022/11/07 01:10:51;;;;;;;2.93;2.00;;;11.00;99.90;;;;;;5060950;28;20220;-54
2022/11/07 01:13:18;;;;;;;6.20;2.27;;;11.00;99.90;;;;;;5061349;28;20217;-52
2022/11/07 01:15:45;;;;;;;4.90;1.97;;;11.10;99.90;;;;;;5062641;28;20196;-54
2022/11/07 01:18:13;;;;;;;3.33;2.00;;;11.00;99.90;;;;;;5064609;28;20219;-54
2022/11/07 01:20:40;;;;;;;3.70;2.00;;;11.00;99.90;;;;;;5067541;28;20297;-54
2022/11/07 01:23:07;;;;;;;4.77;1.90;;;11.00;99.90;;;;;;5066235;28;20202;-54
2022/11/07 01:25:38;;;;;;;6.07;1.90;;;11.00;99.90;;;;;;5066581;28;20729;-53
2022/11/07 01:28:06;;;;;;;5.23;2.30;;;11.00;99.90;;;;;;5055016;28;20200;-54
2022/11/07 01:30:36;;;;;;;4.67;2.37;;;11.00;99.90;;;;;;5060689;28;20281;-54
2022/11/07 01:33:03;;;;;;;5.13;1.77;;;11.00;99.90;;;;;;5064579;28;20199;-54
2022/11/07 01:35:31;;;;;;;4.23;1.63;;;11.00;99.90;;;;;;5064358;28;20203;-54
2022/11/07 01:37:58;;;;;;;4.00;1.90;;;11.00;99.90;;;;;;5063411;28;20215;-54
2022/11/07 01:40:26;;;;;;;7.70;2.37;;;11.00;99.90;;;;;;5062143;28;20218;-53
2022/11/07 01:42:53;;;;;;;3.90;2.10;;;11.00;99.90;;;;;;5060384;28;20228;-53
2022/11/07 01:45:29;;;;;;;5.13;2.17;;;11.00;99.90;;;;;;5061934;28;20281;-52
2022/11/07 01:47:59;;;;;;;2.87;1.43;;;11.00;99.90;;;;;;5060552;28;20232;-54
2022/11/07 01:50:26;;;;;;;6.47;1.63;;;11.00;99.90;;;;;;5057894;28;20247;-55
2022/11/07 01:52:54;;;;;;;3.10;1.80;;;11.00;99.90;;;;;;5069121;28;20212;-54
2022/11/07 01:55:26;;;;;;;6.30;1.97;;;11.00;99.90;;;;;;5066180;28;20195;-54
2022/11/07 01:58:07;;;;;;;3.57;1.70;;;11.00;99.90;;;;;;5066968;28;20295;-54
2022/11/07 02:00:34;;;;;;;6.17;2.00;;;11.00;99.90;;;;;;5055660;28;20212;-55
2022/11/07 02:03:08;;;;;;;3.67;1.90;;;11.00;99.90;;;;;;5061670;28;20246;-54
2022/11/07 02:05:45;;;;;;;7.10;1.90;;;11.00;99.90;;;;;;5062633;28;20209;-55
2022/11/07 02:08:13;;;;;;;4.30;2.00;;;11.00;99.90;;;;;;5060007;28;20210;-54
2022/11/07 02:10:42;;;;;;;3.20;2.07;;;11.00;99.90;;;;;;5066046;28;20327;-54
2022/11/07 02:13:15;;;;;;;6.67;1.93;;;11.00;99.90;;;;;;5056944;28;20214;-56
2022/11/07 02:15:42;;;;;;;7.53;2.60;;;11.00;99.90;;;;;;5066229;28;20200;-54
2022/11/07 02:18:09;;;;;;;4.57;1.93;;;11.10;99.90;;;;;;5069366;28;20230;-54
2022/11/07 02:20:36;;;;;;;5.13;2.07;;;11.10;99.90;;;;;;5051321;28;20207;-54
2022/11/07 02:23:10;;;;;;;5.30;2.20;;;11.10;99.90;;;;;;5061440;28;20221;-54
2022/11/07 02:25:38;;;;;;;7.87;2.33;;;11.10;99.90;;;;;;5066694;28;20233;-55
2022/11/07 02:28:08;;;;;;;9.50;1.97;;;11.20;99.90;;;;;;5066713;28;20244;-55
2022/11/07 02:30:35;;;;;;;6.63;2.10;;;11.30;99.90;;;;;;5058826;28;20203;-57
2022/11/07 02:33:02;;;;;;;8.50;1.67;;;11.30;99.90;;;;;;5062621;28;20282;-56
2022/11/07 02:35:45;;;;;;;8.30;2.00;;;11.30;99.90;;;;;;5065435;28;20206;-54
2022/11/07 02:38:25;;;;;;;5.00;1.80;;;11.30;99.90;;;;;;5066373;28;20223;-55
2022/11/07 02:40:57;;;;;;;5.03;1.80;;;11.30;99.90;;;;;;5063252;28;20221;-54
2022/11/07 02:43:27;;;;;;;3.70;1.73;;;11.40;99.90;;;;;;5059176;28;20626;-53
2022/11/07 02:45:57;;;;;;;6.07;2.07;;;11.40;99.90;;;;;;5062215;28;20580;-54
2022/11/07 02:48:38;;;;;;;2.93;1.60;;;11.30;99.90;;;;;;5067405;28;20213;-54
2022/11/07 02:51:05;;;;;;;3.10;1.70;;;11.30;99.90;;;;;;5068681;28;20310;-53
2022/11/07 02:53:31;;;;;;;5.33;2.30;;;11.30;99.90;;;;;;5071864;28;20217;-54
2022/11/07 02:55:58;;;;;;;5.67;2.10;;;11.30;99.90;;;;;;5067702;28;20206;-53
2022/11/07 02:58:25;;;;;;;4.43;1.90;;;11.30;99.90;;;;;;5065049;28;20604;-54
2022/11/07 03:00:52;;;;;;;6.10;1.93;;;11.40;99.90;;;;;;5068263;28;20210;-54
2022/11/07 03:03:19;;;;;;;3.50;1.80;;;11.40;99.90;;;;;;5069412;28;20198;-54
2022/11/07 03:05:45;;;;;;;4.70;2.13;;;11.40;99.90;;;;;;5071629;28;20215;-54
2022/11/07 03:08:12;;;;;;;6.00;1.77;;;11.40;99.90;;;;;;5065580;28;20206;-54
2022/11/07 03:10:39;;;;;;;5.50;1.97;;;11.40;99.90;;;;;;5068113;28;20244;-54
2022/11/07 03:13:06;;;;;;;7.57;1.77;;;11.30;99.90;;;;;;5069663;28;20232;-54
2022/11/07 03:15:32;;;;;;;3.97;2.13;;;11.30;99.90;;;;;;5063479;28;20219;-55
2022/11/07 03:17:59;;;;;;;5.23;1.63;;;11.30;99.90;;;;;;5067234;28;20291;-54
2022/11/07 03:20:26;;;;;;;5.83;1.80;;;11.30;99.90;;;;;;5069631;28;20198;-53
2022/11/07 03:22:53;;;;;;;4.07;1.80;;;11.30;99.90;;;;;;5064126;28;20196;-53
2022/11/07 03:25:20;;;;;;;7.50;2.10;;;11.30;99.90;;;;;;5065862;28;20239;-54
2022/11/07 03:27:48;;;;;;;6.17;1.83;;;11.30;99.90;;;;;;5061671;28;20202;-55
2022/11/07 03:30:16;;;;;;;5.30;2.00;;;11.30;99.90;;;;;;5067133;28;20204;-56
2022/11/07 03:32:42;;;;;;;7.97;2.40;;;11.30;99.90;;;;;;5068458;28;20629;-60
2022/11/07 03:35:10;;;;;;;6.93;1.60;;;11.30;99.90;;;;;;5062522;28;20209;-54
2022/11/07 03:37:36;;;;;;;5.10;2.20;;;11.30;99.90;;;;;;5063985;28;20210;-54
2022/11/07 03:40:04;;;;;;;7.83;2.33;;;11.30;99.90;;;;;;5069069;28;20214;-54
2022/11/07 03:42:37;;;;;;;4.17;1.63;;;11.30;99.90;;;;;;5068077;28;20201;-55
2022/11/07 03:45:06;;;;;;;4.27;1.93;;;11.30;99.90;;;;;;5064788;28;20206;-55
2022/11/07 03:47:35;;;;;;;3.93;2.20;;;11.30;99.90;;;;;;5064208;28;20322;-54
2022/11/07 03:50:03;;;;;;;7.23;2.23;;;11.30;99.90;;;;;;5064993;28;20229;-54
2022/11/07 03:52:30;;;;;;;5.57;1.93;;;11.30;99.90;;;;;;5064073;28;20204;-54
2022/11/07 03:54:57;;;;;;;8.53;2.30;;;11.30;99.90;;;;;;5069592;28;20272;-54
2022/11/07 03:57:24;;;;;;;5.73;1.70;;;11.30;99.90;;;;;;5070533;28;20309;-54
2022/11/07 03:59:50;;;;;;;8.60;2.30;;;11.30;99.90;;;;;;5064665;28;20294;-54
2022/11/07 04:02:18;;;;;;;5.80;1.67;;;11.40;99.90;;;;;;5067887;28;20736;-54
2022/11/07 04:04:45;;;;;;;5.83;1.57;;;11.40;99.90;;;;;;5071069;28;20652;-54
2022/11/07 04:07:11;;;;;;;4.80;1.67;;;11.40;99.90;;;;;;5064941;28;20194;-56
2022/11/07 04:09:38;;;;;;;6.17;2.20;;;11.40;99.90;;;;;;5060555;28;20294;-54
2022/11/07 04:17:37;;;;;;;10.70;2.13;;;11.50;99.90;;;;;;5064366;28;20327;-54
2022/11/07 04:20:05;;;;;;;6.43;2.00;;;11.50;99.90;;;;;;5068266;28;20682;-54
2022/11/07 04:22:31;;;;;;;5.60;2.00;;;11.50;99.90;;;;;;5067721;28;20191;-59
2022/11/07 04:24:58;;;;;;;7.47;2.10;;;11.40;99.90;;;;;;5064754;28;20276;-54
2022/11/07 04:27:45;;;;;;;7.43;1.83;;;11.50;99.90;;;;;;5067991;28;20246;-54
2022/11/07 04:30:18;;;;;;;10.63;2.07;;;11.40;99.90;;;;;;5057265;28;20562;-58
2022/11/07 04:32:53;;;;;;;8.00;2.57;;;11.50;99.90;;;;;;5064192;28;20701;-56
2022/11/07 04:35:22;;;;;;;6.53;1.70;;;11.50;99.90;;;;;;5061055;28;20210;-59
2022/11/07 04:37:49;;;;;;;10.43;2.17;;;11.50;99.90;;;;;;5067920;28;21099;-53
2022/11/07 04:40:17;;;;;;;4.43;1.80;;;11.50;99.90;;;;;;5066585;28;20296;-54
2022/11/07 04:42:44;;;;;;;10.23;1.70;;;11.50;99.90;;;;;;5065432;28;20214;-54
2022/11/07 04:45:12;;;;;;;6.87;2.00;;;11.50;99.90;;;;;;5062993;28;20188;-54
2022/11/07 04:47:40;;;;;;;10.67;2.40;;;11.50;99.90;;;;;;5055060;28;20210;-54
2022/11/07 04:50:10;;;;;;;7.57;2.47;;;11.50;99.90;;;;;;5066116;28;20204;-55
2022/11/07 04:52:37;;;;;;;6.93;2.00;;;11.50;99.90;;;;;;5057109;28;20575;-54
2022/11/07 04:55:06;;;;;;;12.63;2.53;;;11.50;99.90;;;;;;5063451;28;20925;-54
2022/11/07 04:57:33;;;;;;;8.43;2.07;;;11.50;99.90;;;;;;5058991;28;20286;-54
2022/11/07 05:00:00;;;;;;;7.70;1.77;;;11.50;99.90;;;;;;5066784;28;20242;-54
2022/11/07 05:02:27;;;;;;;6.17;1.97;;;11.50;99.90;;;;;;5067830;28;20220;-56
2022/11/07 05:04:54;;;;;;;9.30;1.87;;;11.50;99.90;;;;;;5064759;28;20247;-54
2022/11/07 05:07:21;;;;;;;9.83;1.70;;;11.50;99.90;;;;;;5063365;28;20192;-54
2022/11/07 05:09:47;;;;;;;6.17;1.77;;;11.50;99.90;;;;;;5065133;28;21503;-55
2022/11/07 05:12:15;;;;;;;7.30;2.23;;;11.50;99.90;;;;;;5065931;28;20223;-55
2022/11/07 05:14:42;;;;;;;8.03;1.90;;;11.50;99.90;;;;;;5064465;28;20252;-55
2022/11/07 05:17:14;;;;;;;10.07;1.90;;;11.50;99.90;;;;;;5065178;28;20286;-55
2022/11/07 05:19:42;;;;;;;8.13;1.93;;;11.60;99.90;;;;;;5065434;28;20302;-55
2022/11/07 05:24:55;;;;;;;8.60;1.80;;;11.60;99.90;;;;;;5064222;28;20658;-54
2022/11/07 05:27:23;;;;;;;9.97;2.33;;;11.60;99.90;;;;;;5062720;28;20203;-54
2022/11/07 05:29:50;;;;;;;5.67;1.60;;;11.70;99.90;;;;;;5065935;28;20246;-53
2022/11/07 05:32:17;;;;;;;5.50;2.03;;;11.70;99.90;;;;;;5064862;28;20195;-53
2022/11/07 05:34:44;;;;;;;9.47;1.90;;;11.70;99.90;;;;;;5064090;28;20222;-58
2022/11/07 05:37:12;;;;;;;2.93;1.90;;;11.70;99.90;;;;;;5062038;28;20200;-54
2022/11/07 05:39:39;;;;;;;8.43;1.50;;;11.70;99.90;;;;;;5066457;28;20261;-54
2022/11/07 05:42:06;;;;;;;7.10;1.80;;;11.70;99.90;;;;;;5062598;28;20199;-55
2022/11/07 05:44:32;;;;;;;10.03;2.17;;;11.70;99.90;;;;;;5062816;28;20283;-54
2022/11/07 05:47:00;;;;;;;5.00;1.93;;;11.70;99.90;;;;;;5059259;28;20238;-53
2022/11/07 05:49:27;;;;;;;6.83;1.97;;;11.70;99.90;;;;;;5072606;28;20209;-54
2022/11/07 05:51:53;;;;;;;8.60;2.03;;;11.70;99.90;;;;;;5073103;28;20198;-54
2022/11/07 05:54:20;;;;;;;11.57;2.30;;;11.70;99.90;;;;;;5063849;28;20236;-54
2022/11/07 05:56:47;;;;;;;9.70;1.67;;;11.70;99.90;;;;;;5065501;28;20196;-54
2022/11/07 05:59:14;;;;;;;7.03;1.87;;;11.70;99.90;;;;;;5065802;28;20221;-54
2022/11/07 06:01:41;;;;;;;8.07;2.40;;;11.60;99.90;;;;;;5064865;28;20221;-55
2022/11/07 06:04:08;;;;;;;13.50;1.80;;;11.60;99.90;;;;;;5066788;28;20191;-54
2022/11/07 06:06:35;;;;;;;5.90;2.43;;;11.60;99.90;;;;;;5065944;28;20634;-54
2022/11/07 06:09:02;;;;;;;7.60;1.70;;;11.50;99.90;;;;;;5064266;28;20222;-55
2022/11/07 06:11:30;;;;;;;7.40;2.13;;;11.50;99.90;;;;;;5066568;28;20758;-54
2022/11/07 06:13:58;;;;;;;9.03;2.50;;;11.50;99.90;;;;;;5058184;28;20280;-55
2022/11/07 06:16:26;;;;;;;8.67;2.27;;;11.50;99.90;;;;;;5062272;28;20319;-54
2022/11/07 06:18:53;;;;;;;6.23;1.53;;;11.50;99.90;;;;;;5064304;28;20258;-54
2022/11/07 06:21:19;;;;;;;5.87;1.63;;;11.60;99.90;;;;;;5067163;28;20217;-54
2022/11/07 06:23:47;;;;;;;10.70;2.20;;;11.60;99.90;;;;;;5062787;28;20317;-55
2022/11/07 06:26:14;;;;;;;7.90;1.90;;;11.60;99.90;;;;;;5066869;28;20192;-54
2022/11/07 06:28:40;;;;;;;9.87;2.57;;;11.60;99.90;;;;;;5062628;28;20526;-54
2022/11/07 06:31:08;;;;;;;5.90;1.80;;;11.60;99.90;;;;;;5062599;28;20286;-53
2022/11/07 06:33:35;;;;;;;8.97;1.60;;;11.60;99.90;;;;;;5065084;28;20206;-54
2022/11/07 06:36:10;;;;;;;11.27;2.17;;;11.70;99.90;;;;;;5065416;28;20196;-54
2022/11/07 06:38:39;;;;;;;11.73;2.10;;;11.80;99.90;;;;;;5065319;28;20214;-54
2022/11/07 06:41:10;;;;;;;7.90;1.97;;;11.80;99.90;;;;;;5067714;28;20569;-54
2022/11/07 06:43:38;;;;;;;5.87;1.93;;;11.80;99.90;;;;;;5061507;28;20293;-54
2022/11/07 06:46:08;;;;;;;10.43;2.10;;;11.80;99.90;;;;;;5059477;28;20598;-53
2022/11/07 06:48:35;;;;;;;7.20;1.80;;;11.90;99.90;;;;;;5058876;28;20199;-55
2022/11/07 06:51:04;;;;;;;8.67;1.80;;;11.80;99.90;;;;;;5065990;28;20202;-54
2022/11/07 06:53:32;;;;;;;11.83;2.23;;;11.80;99.90;;;;;;5067393;28;20290;-55
2022/11/07 06:55:59;;;;;;;5.50;2.33;;;11.80;99.90;;;;;;5067529;28;20335;-55
2022/11/07 06:58:26;;;;;;;9.07;2.27;;;11.80;99.90;;;;;;5065542;28;20201;-55
2022/11/07 07:00:57;;;;;;;5.13;1.73;;;11.80;99.90;;;;;;5055407;28;20235;-54
2022/11/07 07:03:24;;;;;;;3.33;1.23;;;11.80;99.90;;;;;;5066002;28;20675;-54
2022/11/07 07:05:51;;;;;;;6.60;1.93;;;11.70;99.90;;;;;;5062431;28;20196;-54
2022/11/07 07:08:18;;;;;;;13.80;2.23;;;11.70;99.90;;;;;;5058353;28;20547;-54
2022/11/07 07:10:45;;;;;;;10.07;1.57;;;11.80;99.90;;;;;;5072319;28;20314;-55
2022/11/07 07:13:12;;;;;;;10.13;2.17;;;11.80;99.90;;;;;;5057451;28;20224;-55
2022/11/07 07:15:40;;;;;;;7.63;2.47;;;11.80;99.90;;;;;;5063331;28;20199;-54
2022/11/07 07:18:18;;;;;;;5.13;1.70;;;11.80;99.90;;;;;;5061832;28;20196;-54
2022/11/07 07:20:46;;;;;;;7.90;2.23;;;11.80;99.90;;;;;;4704710;28;10000207;-54
2022/11/07 07:23:13;;;;;;;5.60;1.80;;;11.80;99.90;;;;;;5050929;28;20191;-54
2022/11/07 07:25:40;;;;;;;9.40;2.67;;;11.90;99.90;;;;;;5061876;28;20757;-55
2022/11/07 07:28:07;;;;;;;4.90;1.80;;;11.90;99.90;;;;;;5060072;28;20224;-54
2022/11/07 07:30:34;;;;;;;7.30;2.53;;;11.90;99.90;;;;;;5063726;28;20563;-55
2022/11/07 07:33:00;;;;;;;5.07;1.90;;;12.00;99.90;;;;;;5066495;28;20323;-55
2022/11/07 07:35:27;;;;;;;6.00;2.00;;;12.00;99.90;;;;;;5068651;28;20654;-55
2022/11/07 07:37:54;;;;;;;7.60;1.97;;;12.00;99.90;;;;;;5065501;28;20798;-55
2022/11/07 07:40:21;;;;;;;7.47;2.30;;;12.10;99.90;;;;;;5065114;28;20208;-54
2022/11/07 07:42:48;;;;;;;6.20;2.07;;;12.10;99.90;;;;;;5061207;28;20203;-54
2022/11/07 07:45:16;;;;;;;13.50;2.07;;;12.10;99.90;;;;;;5063026;28;20275;-60
2022/11/07 07:47:43;;;;;;;7.23;2.07;;;12.10;99.90;;;;;;5065684;28;20203;-54
2022/11/07 07:50:11;;;;;;;5.57;2.10;;;12.20;99.90;;;;;;5065783;28;20191;-54
2022/11/07 07:52:38;;;;;;;10.37;2.03;;;12.20;99.90;;;;;;5067271;28;20242;-54
2022/11/07 07:55:10;;;;;;;5.83;1.73;;;12.20;99.90;;;;;;5065795;28;20706;-54
2022/11/07 07:57:38;;;;;;;10.53;2.13;;;12.30;99.90;;;;;;5067814;28;20268;-54
2022/11/07 08:00:06;;;;;;;10.00;2.20;;;12.40;99.90;;;;;;5062662;28;20687;-55
2022/11/07 08:02:33;;;;;;;8.57;1.73;;;12.40;99.90;;;;;;5065129;28;20199;-54
2022/11/07 08:04:59;;;;;;;11.73;2.50;;;12.40;99.90;;;;;;5052796;28;20200;-55
2022/11/07 08:07:26;;;;;;;12.23;2.60;;;12.40;99.90;;;;;;5057161;28;20262;-54
2022/11/07 08:09:53;;;;;;;9.87;2.73;;;12.40;99.90;;;;;;5052244;28;20433;-53
2022/11/07 08:12:20;;;;;;;6.13;2.20;;;12.30;99.90;;;;;;5055658;28;20594;-55
2022/11/07 08:14:47;;;;;;;5.97;2.20;;;12.40;99.90;;;;;;5056611;28;20541;-54
2022/11/07 08:17:14;;;;;;;8.03;2.00;;;12.40;99.90;;;;;;5062364;28;20947;-54
2022/11/07 08:19:40;;;;;;;7.73;1.87;;;12.50;99.90;;;;;;5061881;28;20223;-54
2022/11/07 08:22:07;;;;;;;13.80;2.87;;;12.50;99.90;;;;;;5050033;28;20199;-55
2022/11/07 08:24:34;;;;;;;8.83;1.80;;;12.50;99.90;;;;;;5057482;28;20196;-55
2022/11/07 08:27:01;;;;;;;10.33;2.50;;;12.60;99.90;;;;;;5056633;28;22831;-53
2022/11/07 08:29:27;;;;;;;9.20;1.70;;;12.60;99.90;;;;;;5055205;28;20196;-55
2022/11/07 08:31:54;;;;;;;7.87;1.97;;;12.70;99.90;;;;;;5057945;28;20205;-54
2022/11/07 08:34:21;;;;;;;7.87;1.97;;;12.90;99.90;;;;;;5056874;28;20238;-54
2022/11/07 08:36:48;;;;;;;8.03;1.93;;;13.00;99.90;;;;;;5059458;28;20224;-54
2022/11/07 08:39:15;;;;;;;6.60;2.00;;;13.20;99.90;;;;;;5059533;28;21096;-54
2022/11/07 08:41:41;;;;;;;6.93;1.60;;;13.20;37.60;;;;;;5058702;28;20221;-58
2022/11/07 08:44:08;;;;;;;9.97;2.47;;;13.30;11.50;;;;;;5058659;28;20193;-54
2022/11/07 08:46:35;;;;;;;9.27;2.27;;;13.20;1.00;;;;;;5066967;28;20646;-55
2022/11/07 08:49:02;;;;;;;14.77;2.37;;;13.30;1.00;;;;;;5060460;28;20191;-54
2022/11/07 08:51:29;;;;;;;18.17;2.83;;;13.30;1.00;;;;;;5062764;28;20200;-55
2022/11/07 08:53:56;;;;;;;7.87;1.80;;;13.20;1.00;;;;;;5052066;28;20201;-53
2022/11/07 08:56:22;;;;;;;6.20;1.47;;;13.20;1.00;;;;;;5076690;28;20228;-55
2022/11/07 08:58:49;;;;;;;8.50;1.97;;;13.10;1.00;;;;;;5066427;28;20204;-54
2022/11/07 09:01:16;;;;;;;7.17;1.77;;;13.10;1.00;;;;;;5059102;28;20221;-55
2022/11/07 09:03:43;;;;;;;7.17;1.90;;;13.10;1.00;;;;;;5063862;28;20667;-54
2022/11/07 09:06:18;;;;;;;6.90;2.67;;;13.10;1.00;;;;;;5060909;28;20266;-54
2022/11/07 09:08:45;;;;;;;8.53;1.87;;;13.10;1.00;;;;;;5068031;28;20548;-55
2022/11/07 09:11:14;;;;;;;8.70;1.97;;;13.20;1.00;;;;;;5064701;28;20232;-54
2022/11/07 09:13:41;;;;;;;8.70;2.00;;;13.20;1.00;;;;;;5064318;28;20276;-54
2022/11/07 09:16:09;;;;;;;6.30;1.90;;;13.20;1.00;;;;;;5055544;28;20566;-55
2022/11/07 09:18:36;;;;;;;14.33;2.20;;;13.20;1.00;;;;;;5063314;28;20370;-55
2022/11/07 09:21:03;;;;;;;9.83;2.60;;;13.20;1.00;;;;;;5062729;28;20981;-54
2022/11/07 09:23:30;;;;;;;5.20;2.00;;;13.20;1.00;;;;;;5061871;28;20655;-54
2022/11/07 09:26:00;;;;;;;8.50;2.47;;;13.20;1.00;;;;;;5064484;28;20897;-54
2022/11/07 09:28:27;;;;;;;6.37;2.03;;;13.20;1.00;;;;;;5063155;28;20197;-54
2022/11/07 09:30:58;;;;;;;11.73;2.17;;;13.20;1.00;;;;;;5060077;28;20203;-54
2022/11/07 09:33:25;;;;;;;8.67;2.43;;;13.20;1.00;;;;;;5057397;28;20808;-54
2022/11/07 09:35:53;;;;;;;9.40;2.13;;;13.10;1.00;;;;;;5073805;28;20274;-54
2022/11/07 09:38:20;;;;;;;9.53;2.00;;;13.10;1.00;;;;;;5060442;28;20743;-55
2022/11/07 09:40:59;;;;;;;9.63;1.60;;;13.10;46.40;;;;;;5060058;28;20739;-60
2022/11/07 09:43:47;;;;;;;9.10;2.87;;;13.20;1.00;;;;;;5067179;28;20203;-57
2022/11/07 09:46:45;;;;;;;5.80;2.50;;;13.20;1.00;;;;;;5062321;28;20194;-55
2022/11/07 09:49:31;;;;;;;18.03;2.83;;;13.20;1.00;;;;;;5067980;28;20222;-54
2022/11/07 09:52:21;;;;;;;7.70;2.07;;;13.30;1.00;;;;;;5062157;28;20200;-55
2022/11/07 09:55:00;;;;;;;6.93;2.17;;;13.30;1.00;;;;;;5059041;28;20205;-54
2022/11/07 09:57:32;;;;;;;14.87;2.10;;;13.40;1.00;;;;;;5060023;28;20202;-54
2022/11/07 10:00:15;;;;;;;8.23;1.70;;;13.70;1.00;;;;;;5052730;28;20294;-55
2022/11/07 10:02:45;;;;;;;9.77;2.13;;;14.10;1.00;;;;;;5062108;28;20203;-55
2022/11/07 10:05:23;;;;;;;7.23;2.10;;;14.10;99.90;;;;;;5059308;28;20193;-55
2022/11/07 10:07:55;;;;;;;9.07;2.10;;;14.00;1.00;;;;;;5064140;28;20282;-55
2022/11/07 10:10:37;;;;;;;6.17;1.63;;;13.90;1.00;;;;;;5064828;28;20222;-58
2022/11/07 10:13:41;;;;;;;16.90;2.77;;;13.90;1.00;;;;;;5062096;28;20209;-55
2022/11/07 10:16:38;;;;;;;7.23;1.73;;;14.10;1.00;;;;;;5061768;28;20248;-54
2022/11/07 10:19:42;;;;;;;8.73;2.13;;;14.10;1.00;;;;;;5061030;28;20270;-55
2022/11/07 10:22:14;;;;;;;6.07;1.90;;;14.10;1.00;;;;;;5061098;28;20215;-55
2022/11/07 10:24:49;;;;;;;8.33;2.17;;;14.00;99.90;;;;;;5053551;28;20252;-54
2022/11/07 10:27:16;;;;;;;10.03;2.03;;;14.00;99.90;;;;;;5063947;28;20249;-55
2022/11/07 10:29:51;;;;;;;13.27;1.97;;;14.00;99.90;;;;;;5056157;28;20635;-55
2022/11/07 10:32:38;;;;;;;10.03;2.17;;;14.00;1.00;;;;;;5057129;28;20218;-55
2022/11/07 10:35:05;;;;;;;9.47;2.13;;;13.80;1.00;;;;;;5062733;28;20206;-54
2022/11/07 10:37:31;;;;;;;10.73;2.00;;;13.80;1.00;;;;;;5061399;28;20199;-55
2022/11/07 10:39:58;;;;;;;12.63;2.27;;;13.90;1.00;;;;;;5071018;28;20198;-55
2022/11/07 10:42:30;;;;;;;8.53;2.13;;;13.90;1.00;;;;;;5067994;28;20209;-54
2022/11/07 10:44:58;;;;;;;7.63;2.10;;;13.80;1.00;;;;;;5064261;28;20198;-54
2022/11/07 10:47:26;;;;;;;8.70;2.07;;;13.90;99.90;;;;;;5061132;28;20263;-57
2022/11/07 10:49:58;;;;;;;8.40;2.23;;;13.90;1.00;;;;;;5063650;28;20593;-55
2022/11/07 10:52:27;;;;;;;10.37;3.10;;;13.90;54.30;;;;;;5061696;28;20286;-55
2022/11/07 10:55:12;;;;;;;7.03;2.03;;;13.90;1.00;;;;;;5057899;28;20193;-56
2022/11/07 10:57:40;;;;;;;5.40;1.73;;;13.90;85.60;;;;;;5056824;28;20915;-55
2022/11/07 11:00:35;;;;;;;6.03;1.77;;;13.80;99.90;;;;;;5058944;28;20194;-56
2022/11/07 11:03:02;;;;;;;9.60;1.97;;;13.90;99.90;;;;;;5059047;28;20209;-56
2022/11/07 11:05:40;;;;;;;8.77;2.30;;;14.00;83.00;;;;;;5072081;28;20195;-56
2022/11/07 11:08:30;;;;;;;5.50;1.93;;;13.90;99.90;;;;;;5062466;28;20197;-56
2022/11/07 11:10:57;;;;;;;7.20;1.93;;;14.00;1.00;;;;;;5067105;28;20231;-55
2022/11/07 11:13:33;;;;;;;7.10;2.50;;;14.00;1.00;;;;;;5069051;28;20685;-56
2022/11/07 11:16:23;;;;;;;10.43;2.27;;;14.00;1.00;;;;;;5065872;28;20763;-55
2022/11/07 11:18:52;;;;;;;7.90;2.10;;;14.10;99.90;;;;;;5067468;28;20290;-56
2022/11/07 11:21:19;;;;;;;10.33;1.97;;;14.10;99.90;;;;;;5070253;28;20651;-55
2022/11/07 11:23:47;;;;;;;9.23;2.03;;;14.20;93.90;;;;;;5065246;28;20195;-56
2022/11/07 11:26:31;;;;;;;8.87;2.33;;;14.20;1.00;;;;;;5062068;28;20417;-56
2022/11/07 11:29:12;;;;;;;6.47;1.50;;;14.20;1.00;;;;;;5062700;28;20301;-57
2022/11/07 11:31:44;;;;;;;9.00;1.63;;;14.30;1.00;;;;;;5059337;28;20206;-58
2022/11/07 11:34:29;;;;;;;10.40;2.10;;;14.40;1.00;;;;;;5057678;28;20202;-57
2022/11/07 11:37:05;;;;;;;10.53;2.17;;;14.40;99.90;;;;;;5061963;28;20301;-54
2022/11/07 11:40:10;;;;;;;6.47;1.77;;;14.40;1.00;;;;;;5058720;28;20646;-54
2022/11/07 11:42:55;;;;;;;9.17;1.87;;;14.40;26.10;;;;;;5035313;28;20821;-56
2022/11/07 11:45:38;;;;;;;8.40;1.83;;;14.40;1.00;;;;;;5054947;28;20203;-55
2022/11/07 11:48:23;;;;;;;7.33;1.50;;;14.40;1.00;;;;;;5054413;28;20214;-55
2022/11/07 11:51:20;;;;;;;8.43;1.53;;;14.40;1.00;;;;;;5059094;28;20918;-55
2022/11/07 11:53:47;;;;;;;6.83;1.43;;;14.30;1.00;;;;;;5062887;28;20610;-56
2022/11/07 11:56:42;;;;;;;7.50;2.30;;;14.40;1.00;;;;;;5063913;28;20199;-56
2022/11/07 11:59:27;;;;;;;7.83;1.90;;;14.40;1.00;;;;;;5064357;28;20622;-54
2022/11/07 12:02:31;;;;;;;12.10;2.13;;;14.40;1.00;;;;;;5062210;28;20592;-56
2022/11/07 12:05:20;;;;;;;8.43;1.60;;;14.50;1.00;;;;;;5058375;28;20303;-56
2022/11/07 12:07:49;;;;;;;8.67;1.77;;;14.50;99.90;;;;;;5060477;28;20210;-56
2022/11/07 12:10:18;;;;;;;11.83;1.87;;;14.80;99.90;;;;;;5060638;28;21022;-56
2022/11/07 12:12:51;;;;;;;15.13;2.20;;;14.90;1.00;;;;;;5055728;28;20193;-56
2022/11/07 12:15:24;;;;;;;6.80;1.50;;;15.00;1.00;;;;;;5058538;28;20199;-56
2022/11/07 12:18:00;;;;;;;6.23;1.77;;;15.00;1.00;;;;;;5059494;28;20238;-56
2022/11/07 12:20:55;;;;;;;7.70;1.73;;;15.00;1.00;;;;;;5065604;28;20642;-55
2022/11/07 12:23:51;;;;;;;5.87;1.93;;;15.00;1.00;;;;;;5030553;28;20202;-56
2022/11/07 12:26:23;;;;;;;11.53;2.23;;;15.00;1.00;;;;;;5059660;28;20283;-56
2022/11/07 12:29:28;;;;;;;8.07;1.93;;;15.30;99.90;;;;;;5061253;28;20203;-55
2022/11/07 12:32:11;;;;;;;11.83;1.70;;;15.20;99.90;;;;;;5057779;28;20196;-56
2022/11/07 12:34:57;;;;;;;11.00;1.60;;;15.30;99.90;;;;;;5059503;28;20199;-55
2022/11/07 12:37:37;;;;;;;8.93;1.77;;;15.50;99.90;;;;;;5059210;28;20286;-56
2022/11/07 12:40:42;;;;;;;9.80;2.10;;;15.50;99.90;;;;;;5061551;28;20294;-55
2022/11/07 12:43:43;;;;;;;4.97;1.50;;;15.30;99.90;;;;;;5064600;28;20246;-56
2022/11/07 12:46:15;;;;;;;5.37;1.63;;;15.20;99.90;;;;;;5057662;28;20214;-55
2022/11/07 12:49:05;;;;;;;4.43;1.47;;;15.10;99.90;;;;;;5059205;28;20248;-54
2022/11/07 12:51:54;;;;;;;11.23;2.07;;;15.00;1.00;;;;;;5058752;28;20746;-56
2022/11/07 12:54:45;;;;;;;6.50;1.50;;;15.00;1.00;;;;;;5061085;28;20279;-55
2022/11/07 12:57:19;;;;;;;7.87;2.10;;;14.90;1.00;;;;;;5058181;28;20203;-56
2022/11/07 12:59:53;;;;;;;8.83;1.73;;;14.90;99.90;;;;;;5056737;28;21897;-55
2022/11/07 13:02:24;;;;;;;10.60;1.73;;;14.80;1.00;;;;;;5059532;28;20291;-54
2022/11/07 13:05:02;;;;;;;9.73;1.83;;;14.80;1.00;;;;;;5060748;28;20187;-53
2022/11/07 13:07:41;;;;;;;6.20;1.70;;;14.80;1.00;;;;;;5060114;28;20196;-55
2022/11/07 13:10:23;;;;;;;5.53;1.83;;;14.80;1.00;;;;;;5057379;28;20219;-54
2022/11/07 13:12:56;;;;;;;4.20;1.90;;;14.80;1.00;;;;;;5058122;28;20274;-55
2022/11/07 13:15:23;;;;;;;9.50;2.23;;;14.80;1.00;;;;;;5050294;28;20204;-55
2022/11/07 13:17:50;;;;;;;10.13;2.97;;;14.80;1.00;;;;;;5056349;28;20233;-54
2022/11/07 13:20:20;;;;;;;8.27;1.83;;;14.70;1.00;;;;;;5059650;28;20205;-55